Time;durP1;ratioP1;P1;durP2;ratioP2;P2;SDS_P1;SDS_P2;PMS_P1;PMS_P2;Temp;Humidity;BMP_temperature;BMP_pressure;BME280_temperature;BME280_humidity;BME280_pressure;Samples;Min_cycle;Max_cycle;Signal;HPM_P1;HPM_P2
2023/08/20 00:00:44;;;;;;;11.75;8.70;;;;;;;;;;4986363;28;20050;-92
2023/08/20 00:03:15;;;;;;;9.02;8.23;;;;;;;;;;4964047;28;20034;-91
2023/08/20 00:05:46;;;;;;;9.52;8.20;;;;;;;;;;4991045;28;20030;-94
2023/08/20 00:08:13;;;;;;;9.60;8.63;;;;;;;;;;4980825;28;20035;-92
2023/08/20 00:10:42;;;;;;;12.80;9.23;;;;;;;;;;4978857;28;20042;-93
2023/08/20 00:13:09;;;;;;;11.90;8.82;;;;;;;;;;4966101;28;20041;-92
2023/08/20 00:15:37;;;;;;;9.32;8.40;;;;;;;;;;4957375;28;20031;-92
2023/08/20 00:18:05;;;;;;;8.23;7.20;;;;;;;;;;4977849;28;20038;-92
2023/08/20 00:20:34;;;;;;;8.70;7.80;;;;;;;;;;4986477;28;20043;-92
2023/08/20 00:23:02;;;;;;;11.65;8.10;;;;;;;;;;4977031;28;20041;-92
2023/08/20 00:25:30;;;;;;;11.50;7.25;;;;;;;;;;4981171;28;20055;-94
2023/08/20 00:27:59;;;;;;;12.90;9.07;;;;;;;;;;4970026;28;20046;-93
2023/08/20 00:30:27;;;;;;;7.78;6.97;;;;;;;;;;4988737;28;20061;-92
2023/08/20 00:32:55;;;;;;;13.93;8.52;;;;;;;;;;4971849;28;20042;-93
2023/08/20 00:35:22;;;;;;;7.95;7.13;;;;;;;;;;4978391;28;20054;-92
2023/08/20 00:37:51;;;;;;;8.80;7.68;;;;;;;;;;4970343;28;20030;-93
2023/08/20 00:40:19;;;;;;;13.88;8.63;;;;;;;;;;4966422;28;20056;-92
2023/08/20 00:42:46;;;;;;;7.88;7.18;;;;;;;;;;4981103;28;20035;-92
2023/08/20 00:45:16;;;;;;;12.68;7.55;;;;;;;;;;4971959;28;20031;-92
2023/08/20 00:47:46;;;;;;;9.07;8.18;;;;;;;;;;4971671;28;20059;-92
2023/08/20 00:50:15;;;;;;;11.75;7.90;;;;;;;;;;4961556;28;20034;-93
2023/08/20 00:52:42;;;;;;;9.50;7.22;;;;;;;;;;4979158;28;20039;-92
2023/08/20 00:55:12;;;;;;;9.48;8.50;;;;;;;;;;4958658;28;20049;-92
2023/08/20 00:57:41;;;;;;;10.65;7.97;;;;;;;;;;4982913;28;20027;-92
2023/08/20 01:00:10;;;;;;;14.13;7.60;;;;;;;;;;4981687;28;20030;-92
2023/08/20 01:02:39;;;;;;;11.68;8.70;;;;;;;;;;4980360;28;20049;-92
2023/08/20 01:05:10;;;;;;;16.23;9.40;;;;;;;;;;4971708;28;20030;-92
2023/08/20 01:07:45;;;;;;;9.43;7.97;;;;;;;;;;4973340;28;20055;-93
2023/08/20 01:10:19;;;;;;;8.13;7.32;;;;;;;;;;4945130;28;20031;-92
2023/08/20 01:12:47;;;;;;;9.13;8.20;;;;;;;;;;4989448;28;20050;-92
2023/08/20 01:15:14;;;;;;;9.25;8.18;;;;;;;;;;4952061;28;20038;-92
2023/08/20 01:17:45;;;;;;;9.88;8.40;;;;;;;;;;4974152;28;20038;-92
2023/08/20 01:20:14;;;;;;;9.20;8.32;;;;;;;;;;4956938;28;20038;-93
2023/08/20 01:23:12;;;;;;;9.52;8.10;;;;;;;;;;4988183;28;20055;-92
2023/08/20 01:25:50;;;;;;;8.93;7.70;;;;;;;;;;4962774;28;20051;-93
2023/08/20 01:28:26;;;;;;;11.40;7.85;;;;;;;;;;4954966;28;20057;-92
2023/08/20 01:30:54;;;;;;;10.05;8.35;;;;;;;;;;4978137;28;20043;-93
2023/08/20 01:33:21;;;;;;;10.25;7.95;;;;;;;;;;4968520;28;20639;-92
2023/08/20 01:35:56;;;;;;;9.43;8.63;;;;;;;;;;4977491;28;20034;-92
2023/08/20 01:38:24;;;;;;;8.80;8.00;;;;;;;;;;4966861;28;20045;-92
2023/08/20 01:40:51;;;;;;;11.70;8.00;;;;;;;;;;4978212;28;20041;-92
2023/08/20 01:43:19;;;;;;;9.75;8.18;;;;;;;;;;4982891;28;20037;-93
2023/08/20 01:45:53;;;;;;;9.57;8.43;;;;;;;;;;4968647;28;20058;-93
2023/08/20 01:48:21;;;;;;;8.85;8.05;;;;;;;;;;4981897;28;20046;-92
2023/08/20 01:50:48;;;;;;;9.00;8.10;;;;;;;;;;4978936;28;20046;-92
2023/08/20 01:53:18;;;;;;;12.35;7.88;;;;;;;;;;4999910;28;20037;-93
2023/08/20 01:55:45;;;;;;;9.60;7.57;;;;;;;;;;5000087;28;20060;-92
2023/08/20 01:58:13;;;;;;;12.38;8.32;;;;;;;;;;4974348;28;20037;-92
2023/08/20 02:00:43;;;;;;;10.18;8.60;;;;;;;;;;4982258;28;20035;-92
2023/08/20 02:03:14;;;;;;;14.27;8.35;;;;;;;;;;4984675;28;20023;-93
2023/08/20 02:05:44;;;;;;;12.10;7.43;;;;;;;;;;4971516;28;20051;-93
2023/08/20 02:08:12;;;;;;;9.70;8.40;;;;;;;;;;4971323;28;20039;-93
2023/08/20 02:10:39;;;;;;;10.55;7.78;;;;;;;;;;4963863;28;20042;-93
2023/08/20 02:13:07;;;;;;;10.80;7.78;;;;;;;;;;4958320;28;20031;-92
2023/08/20 02:15:34;;;;;;;8.25;7.15;;;;;;;;;;4976448;28;20045;-92
2023/08/20 02:18:02;;;;;;;12.18;7.78;;;;;;;;;;4978094;28;20035;-93
2023/08/20 02:20:32;;;;;;;16.25;8.10;;;;;;;;;;4977537;28;20039;-94
2023/08/20 02:22:59;;;;;;;10.75;8.15;;;;;;;;;;4973514;28;20041;-91
2023/08/20 02:25:27;;;;;;;14.65;8.13;;;;;;;;;;4953697;28;20034;-93
2023/08/20 02:27:56;;;;;;;10.07;8.57;;;;;;;;;;4970609;28;20049;-92
2023/08/20 02:30:26;;;;;;;10.75;9.40;;;;;;;;;;4948414;28;20039;-92
2023/08/20 02:32:55;;;;;;;13.63;8.98;;;;;;;;;;4983244;28;20023;-93
2023/08/20 02:35:27;;;;;;;8.85;7.95;;;;;;;;;;4993594;28;20041;-92
2023/08/20 02:37:56;;;;;;;11.73;8.20;;;;;;;;;;4964437;28;20041;-91
2023/08/20 02:40:24;;;;;;;11.75;7.00;;;;;;;;;;4985447;28;20028;-91
2023/08/20 02:42:51;;;;;;;12.23;9.35;;;;;;;;;;4971763;28;20052;-92
2023/08/20 02:45:19;;;;;;;12.32;9.15;;;;;;;;;;4955063;28;20042;-92
2023/08/20 02:47:46;;;;;;;11.77;9.05;;;;;;;;;;4974792;28;20035;-92
2023/08/20 02:50:13;;;;;;;21.00;8.50;;;;;;;;;;4951904;28;20031;-92
2023/08/20 02:52:42;;;;;;;9.27;8.38;;;;;;;;;;4987677;28;20053;-92
2023/08/20 02:55:11;;;;;;;7.90;7.13;;;;;;;;;;4982429;28;20041;-94
2023/08/20 02:57:43;;;;;;;11.98;7.82;;;;;;;;;;4998937;28;20023;-92
2023/08/20 03:00:15;;;;;;;9.65;8.00;;;;;;;;;;4989893;28;20038;-92
2023/08/20 03:02:45;;;;;;;12.02;8.52;;;;;;;;;;4979658;28;20047;-92
2023/08/20 03:05:15;;;;;;;18.85;10.15;;;;;;;;;;4972551;28;20023;-91
2023/08/20 03:07:43;;;;;;;13.27;8.52;;;;;;;;;;4977947;28;20039;-93
2023/08/20 03:10:13;;;;;;;12.40;8.48;;;;;;;;;;4996191;28;20031;-92
2023/08/20 03:12:42;;;;;;;8.35;7.47;;;;;;;;;;4974343;28;20023;-92
2023/08/20 03:15:12;;;;;;;10.38;9.23;;;;;;;;;;4997759;28;20026;-92
2023/08/20 03:17:39;;;;;;;8.43;7.18;;;;;;;;;;4965753;28;20026;-92
2023/08/20 03:20:08;;;;;;;11.02;8.52;;;;;;;;;;4973156;28;20037;-92
2023/08/20 03:22:37;;;;;;;13.98;8.43;;;;;;;;;;4979442;28;20049;-92
2023/08/20 03:25:06;;;;;;;9.95;7.80;;;;;;;;;;4981539;28;20037;-93
2023/08/20 03:27:37;;;;;;;10.02;7.85;;;;;;;;;;4981275;28;20057;-91
2023/08/20 03:30:06;;;;;;;10.15;8.15;;;;;;;;;;4992254;28;20042;-91
2023/08/20 03:32:36;;;;;;;11.48;8.63;;;;;;;;;;4980544;28;20045;-92
2023/08/20 03:35:05;;;;;;;8.65;7.85;;;;;;;;;;4997728;28;20035;-92
2023/08/20 03:37:32;;;;;;;8.63;7.00;;;;;;;;;;4981561;28;20046;-91
2023/08/20 03:40:00;;;;;;;8.70;7.90;;;;;;;;;;4958451;28;20035;-91
2023/08/20 03:42:32;;;;;;;10.03;8.80;;;;;;;;;;4976239;28;20035;-92
2023/08/20 03:45:01;;;;;;;15.25;7.70;;;;;;;;;;4980749;28;20031;-91
2023/08/20 03:47:31;;;;;;;9.13;7.40;;;;;;;;;;4959030;28;20047;-92
2023/08/20 03:49:59;;;;;;;14.20;7.75;;;;;;;;;;4964870;28;20035;-92
2023/08/20 03:52:28;;;;;;;13.45;8.43;;;;;;;;;;4972218;28;20025;-92
2023/08/20 03:54:58;;;;;;;14.90;9.23;;;;;;;;;;4990995;28;20047;-92
2023/08/20 03:57:28;;;;;;;16.38;7.75;;;;;;;;;;4963157;28;20029;-92
2023/08/20 03:59:55;;;;;;;11.43;7.95;;;;;;;;;;4986530;28;20028;-92
2023/08/20 04:02:25;;;;;;;8.68;7.68;;;;;;;;;;4972319;28;20029;-92
2023/08/20 04:04:52;;;;;;;8.85;7.55;;;;;;;;;;4980112;28;20018;-92
2023/08/20 04:07:20;;;;;;;10.18;7.45;;;;;;;;;;4972932;28;20038;-92
2023/08/20 04:09:52;;;;;;;10.88;6.47;;;;;;;;;;4981114;28;20057;-93
2023/08/20 04:12:21;;;;;;;8.05;7.25;;;;;;;;;;4986596;28;20035;-93
2023/08/20 04:14:51;;;;;;;9.23;8.25;;;;;;;;;;4976663;28;20034;-91
2023/08/20 04:17:18;;;;;;;12.32;7.75;;;;;;;;;;4964452;28;20035;-92
2023/08/20 04:19:50;;;;;;;16.88;8.10;;;;;;;;;;4967038;28;20031;-92
2023/08/20 04:22:18;;;;;;;11.30;7.93;;;;;;;;;;4979368;28;20039;-90
2023/08/20 04:24:45;;;;;;;8.98;7.93;;;;;;;;;;4961742;28;20054;-91
2023/08/20 04:27:16;;;;;;;10.52;9.45;;;;;;;;;;4995830;28;20035;-91
2023/08/20 04:29:45;;;;;;;12.27;9.25;;;;;;;;;;4964352;28;20039;-92
2023/08/20 04:32:13;;;;;;;9.48;8.48;;;;;;;;;;4975702;28;20033;-91
2023/08/20 04:34:42;;;;;;;18.73;8.98;;;;;;;;;;4958800;28;20033;-92
2023/08/20 04:37:11;;;;;;;11.05;8.45;;;;;;;;;;4973170;28;20158;-92
2023/08/20 04:39:40;;;;;;;9.55;8.50;;;;;;;;;;4961175;28;20037;-92
2023/08/20 04:42:12;;;;;;;14.68;9.95;;;;;;;;;;4975317;28;20043;-91
2023/08/20 04:44:42;;;;;;;11.60;8.98;;;;;;;;;;4981624;28;20035;-92
2023/08/20 04:47:12;;;;;;;9.40;8.45;;;;;;;;;;4978651;28;20039;-92
2023/08/20 04:49:40;;;;;;;14.07;8.13;;;;;;;;;;4981056;28;20038;-92
2023/08/20 04:52:08;;;;;;;8.55;7.75;;;;;;;;;;4963003;28;20039;-91
2023/08/20 04:54:39;;;;;;;15.63;9.10;;;;;;;;;;4956164;28;20037;-92
2023/08/20 04:57:07;;;;;;;13.00;7.80;;;;;;;;;;4966256;28;20033;-92
2023/08/20 04:59:35;;;;;;;13.27;8.52;;;;;;;;;;4961405;28;20028;-92
2023/08/20 05:02:03;;;;;;;9.10;8.07;;;;;;;;;;4992547;28;20051;-91
2023/08/20 05:04:49;;;;;;;10.93;8.77;;;;;;;;;;4965594;28;20123;-92
2023/08/20 05:07:18;;;;;;;9.60;8.13;;;;;;;;;;4982484;28;20038;-93
2023/08/20 05:09:47;;;;;;;13.35;7.57;;;;;;;;;;4974234;28;20045;-93
2023/08/20 05:12:17;;;;;;;7.90;7.07;;;;;;;;;;4976739;28;20057;-92
2023/08/20 05:14:48;;;;;;;12.18;8.57;;;;;;;;;;4984387;28;20039;-92
2023/08/20 05:17:16;;;;;;;8.45;7.65;;;;;;;;;;4983350;28;20037;-91
2023/08/20 05:19:47;;;;;;;9.57;7.47;;;;;;;;;;5006573;28;20039;-92
2023/08/20 05:22:15;;;;;;;8.02;6.82;;;;;;;;;;4995115;28;20311;-91
2023/08/20 05:24:45;;;;;;;11.23;7.70;;;;;;;;;;4984493;28;20041;-92
2023/08/20 05:27:17;;;;;;;9.35;6.32;;;;;;;;;;4995098;28;20044;-91
2023/08/20 05:29:46;;;;;;;10.82;7.35;;;;;;;;;;4982976;28;20043;-92
2023/08/20 05:32:18;;;;;;;7.68;6.43;;;;;;;;;;4966279;28;20039;-90
2023/08/20 05:34:46;;;;;;;6.38;5.78;;;;;;;;;;4961013;28;20285;-92
2023/08/20 05:37:14;;;;;;;7.55;6.60;;;;;;;;;;4953033;28;20031;-91
2023/08/20 05:39:43;;;;;;;7.68;5.50;;;;;;;;;;4977137;28;20069;-92
2023/08/20 05:42:11;;;;;;;15.02;8.23;;;;;;;;;;4992931;28;20034;-93
2023/08/20 05:44:48;;;;;;;7.25;5.35;;;;;;;;;;4974272;28;20042;-93
2023/08/20 05:47:28;;;;;;;7.72;6.00;;;;;;;;;;4991060;28;20051;-94
2023/08/20 05:49:56;;;;;;;7.22;5.53;;;;;;;;;;4974690;28;20037;-94
2023/08/20 05:52:24;;;;;;;10.93;6.75;;;;;;;;;;4990031;28;20047;-92
2023/08/20 05:54:53;;;;;;;7.03;6.00;;;;;;;;;;4977889;28;20034;-93
2023/08/20 05:57:22;;;;;;;9.43;6.93;;;;;;;;;;4969300;28;20062;-93
2023/08/20 05:59:51;;;;;;;12.50;6.60;;;;;;;;;;4989715;28;20050;-93
2023/08/20 06:02:19;;;;;;;8.00;6.03;;;;;;;;;;4982923;28;20039;-92
2023/08/20 06:04:49;;;;;;;7.50;6.70;;;;;;;;;;4980401;28;20031;-92
2023/08/20 06:07:16;;;;;;;6.55;5.82;;;;;;;;;;4999404;28;20038;-92
2023/08/20 06:09:44;;;;;;;10.40;5.93;;;;;;;;;;4982568;28;20062;-94
2023/08/20 06:12:12;;;;;;;7.38;6.15;;;;;;;;;;4990281;28;20054;-92
2023/08/20 06:14:40;;;;;;;8.48;6.82;;;;;;;;;;4976989;28;20027;-92
2023/08/20 06:17:10;;;;;;;16.85;6.57;;;;;;;;;;4978699;28;20041;-92
2023/08/20 06:19:37;;;;;;;7.32;6.40;;;;;;;;;;4993495;28;20043;-93
2023/08/20 06:22:10;;;;;;;7.90;6.68;;;;;;;;;;4988404;28;20039;-91
2023/08/20 06:24:38;;;;;;;10.60;6.57;;;;;;;;;;4972405;28;20039;-92
2023/08/20 06:27:06;;;;;;;9.38;6.85;;;;;;;;;;4964067;28;20065;-92
2023/08/20 06:29:36;;;;;;;7.28;6.45;;;;;;;;;;4996229;28;20027;-92
2023/08/20 06:32:07;;;;;;;11.68;5.65;;;;;;;;;;4970503;28;20963;-91
2023/08/20 06:34:37;;;;;;;8.15;6.90;;;;;;;;;;4991801;28;20035;-91
2023/08/20 06:37:05;;;;;;;7.53;6.55;;;;;;;;;;4976109;28;20045;-92
2023/08/20 06:39:32;;;;;;;8.75;6.38;;;;;;;;;;4994463;28;20057;-92
2023/08/20 06:42:00;;;;;;;7.05;6.35;;;;;;;;;;4975695;28;20038;-93
2023/08/20 06:44:28;;;;;;;9.25;7.45;;;;;;;;;;4996751;28;20033;-92
2023/08/20 06:46:58;;;;;;;8.60;6.63;;;;;;;;;;4993664;28;20034;-93
2023/08/20 06:49:26;;;;;;;9.73;6.88;;;;;;;;;;4987423;28;20047;-93
2023/08/20 06:51:55;;;;;;;7.78;6.93;;;;;;;;;;4997121;28;20029;-93
2023/08/20 06:54:24;;;;;;;8.05;7.22;;;;;;;;;;4970737;28;20031;-91
2023/08/20 06:56:52;;;;;;;8.00;6.13;;;;;;;;;;4978303;28;20037;-92
2023/08/20 06:59:24;;;;;;;7.22;6.50;;;;;;;;;;4970034;28;20050;-92
2023/08/20 07:01:52;;;;;;;;;;;;;;;;;;4976217;28;20039;-92
2023/08/20 07:04:20;;;;;;;7.97;6.50;;;;;;;;;;4987527;28;19929;-92
2023/08/20 07:06:48;;;;;;;6.35;5.75;;;;;;;;;;4995625;28;20031;-92
2023/08/20 07:09:17;;;;;;;11.20;7.60;;;;;;;;;;4956890;28;20027;-92
2023/08/20 07:11:45;;;;;;;7.75;7.03;;;;;;;;;;4996706;28;20046;-92
2023/08/20 07:14:13;;;;;;;7.30;6.57;;;;;;;;;;4980516;28;20031;-92
2023/08/20 07:16:41;;;;;;;8.63;7.00;;;;;;;;;;4996315;28;20023;-94
2023/08/20 07:19:09;;;;;;;11.60;7.60;;;;;;;;;;4988978;28;20049;-93
2023/08/20 07:21:39;;;;;;;8.15;7.35;;;;;;;;;;4994834;28;20047;-93
2023/08/20 07:24:08;;;;;;;14.55;7.35;;;;;;;;;;4994463;28;20027;-94
2023/08/20 07:26:37;;;;;;;7.75;6.95;;;;;;;;;;4979196;28;20043;-92
2023/08/20 07:29:05;;;;;;;8.07;7.25;;;;;;;;;;4987121;28;20046;-92
2023/08/20 07:31:34;;;;;;;6.38;5.78;;;;;;;;;;4975734;28;20150;-94
2023/08/20 07:34:04;;;;;;;6.40;5.80;;;;;;;;;;4976227;28;20041;-93
2023/08/20 07:36:32;;;;;;;9.07;6.68;;;;;;;;;;4975332;28;20061;-93
2023/08/20 07:39:00;;;;;;;7.20;6.32;;;;;;;;;;4975791;28;20026;-92
2023/08/20 07:41:28;;;;;;;18.23;8.10;;;;;;;;;;4972872;28;20058;-93
2023/08/20 07:43:59;;;;;;;7.22;5.72;;;;;;;;;;4975205;28;20043;-93
2023/08/20 07:46:29;;;;;;;7.80;6.43;;;;;;;;;;4972609;28;20038;-92
2023/08/20 07:48:57;;;;;;;14.20;6.72;;;;;;;;;;4975424;28;20049;-93
2023/08/20 07:51:24;;;;;;;10.38;7.45;;;;;;;;;;4986738;28;20043;-93
2023/08/20 07:53:58;;;;;;;6.65;5.95;;;;;;;;;;4957467;28;20045;-94
2023/08/20 07:56:27;;;;;;;8.82;6.85;;;;;;;;;;4973318;28;20031;-94
2023/08/20 07:58:56;;;;;;;9.52;6.25;;;;;;;;;;4997260;28;20046;-93
2023/08/20 08:01:25;;;;;;;8.90;6.85;;;;;;;;;;4997181;28;20034;-93
2023/08/20 08:03:57;;;;;;;7.03;6.32;;;;;;;;;;4972838;28;20036;-93
2023/08/20 08:06:26;;;;;;;8.27;6.80;;;;;;;;;;4979844;28;20029;-93
2023/08/20 08:08:53;;;;;;;6.68;5.97;;;;;;;;;;4975487;28;20035;-93
2023/08/20 08:11:24;;;;;;;6.65;6.05;;;;;;;;;;4980206;28;20015;-93
2023/08/20 08:13:54;;;;;;;8.35;5.53;;;;;;;;;;4992683;28;20041;-92
2023/08/20 08:16:21;;;;;;;7.05;6.30;;;;;;;;;;4954116;28;20030;-93
2023/08/20 08:18:50;;;;;;;7.10;6.20;;;;;;;;;;4988753;28;20037;-94
2023/08/20 08:21:18;;;;;;;7.15;6.55;;;;;;;;;;4996656;28;20035;-92
2023/08/20 08:23:48;;;;;;;7.15;6.03;;;;;;;;;;4976909;28;20843;-94
2023/08/20 08:26:15;;;;;;;11.45;6.93;;;;;;;;;;4975804;28;20035;-93
2023/08/20 08:28:43;;;;;;;6.50;5.57;;;;;;;;;;4965382;28;20053;-92
2023/08/20 08:31:10;;;;;;;7.38;5.82;;;;;;;;;;4996373;28;20054;-91
2023/08/20 08:33:45;;;;;;;6.32;5.82;;;;;;;;;;4979425;28;20025;-92
2023/08/20 08:36:15;;;;;;;7.50;5.82;;;;;;;;;;4996965;28;20022;-92
2023/08/20 08:38:42;;;;;;;5.65;5.13;;;;;;;;;;4979422;28;20055;-93
2023/08/20 08:41:12;;;;;;;10.65;6.20;;;;;;;;;;4972189;28;20039;-95
2023/08/20 08:43:41;;;;;;;6.50;5.90;;;;;;;;;;4969853;28;20035;-92
2023/08/20 08:46:13;;;;;;;10.90;6.07;;;;;;;;;;4989438;28;20059;-93
2023/08/20 08:48:42;;;;;;;6.18;5.57;;;;;;;;;;4973441;28;20042;-93
2023/08/20 08:51:14;;;;;;;5.83;5.33;;;;;;;;;;4989196;28;20049;-93
2023/08/20 08:53:43;;;;;;;5.82;5.32;;;;;;;;;;4989011;28;20295;-93
2023/08/20 08:56:13;;;;;;;7.03;6.07;;;;;;;;;;4996465;28;20041;-93
2023/08/20 08:58:40;;;;;;;5.57;4.90;;;;;;;;;;4989971;28;20049;-94
2023/08/20 09:01:12;;;;;;;5.82;5.25;;;;;;;;;;4996181;28;20027;-94
2023/08/20 09:03:42;;;;;;;6.18;5.30;;;;;;;;;;4978235;28;20041;-94
2023/08/20 09:06:10;;;;;;;6.00;5.22;;;;;;;;;;4978347;28;20039;-93
2023/08/20 09:08:42;;;;;;;5.50;5.00;;;;;;;;;;4994652;28;20037;-93
2023/08/20 09:11:09;;;;;;;6.25;5.65;;;;;;;;;;4970717;28;20043;-94
2023/08/20 09:13:39;;;;;;;8.82;5.25;;;;;;;;;;4993599;28;20107;-94
2023/08/20 09:16:20;;;;;;;6.90;5.50;;;;;;;;;;4989920;28;20060;-93
2023/08/20 09:18:51;;;;;;;6.20;5.13;;;;;;;;;;4984308;28;20031;-93
2023/08/20 09:21:37;;;;;;;5.13;4.63;;;;;;;;;;4992419;28;20035;-94
2023/08/20 09:24:43;;;;;;;5.25;4.85;;;;;;;;;;4995304;28;20053;-93
2023/08/20 09:27:10;;;;;;;6.40;5.45;;;;;;;;;;4989805;28;20057;-94
2023/08/20 09:29:48;;;;;;;6.43;5.25;;;;;;;;;;4982440;28;20051;-94
2023/08/20 09:32:22;;;;;;;5.88;4.78;;;;;;;;;;4995793;28;20027;-93
2023/08/20 09:34:50;;;;;;;6.03;5.22;;;;;;;;;;4994583;28;20069;-94
2023/08/20 09:37:28;;;;;;;5.47;4.65;;;;;;;;;;4994396;28;20034;-93
2023/08/20 09:40:05;;;;;;;5.57;4.95;;;;;;;;;;4987045;28;20039;-94
2023/08/20 09:42:33;;;;;;;6.60;5.15;;;;;;;;;;4989741;28;20037;-94
2023/08/20 09:45:04;;;;;;;4.53;4.13;;;;;;;;;;4978951;28;20057;-94
2023/08/20 09:47:37;;;;;;;5.03;4.38;;;;;;;;;;4971150;28;20035;-94
2023/08/20 09:50:10;;;;;;;7.63;4.72;;;;;;;;;;4992043;28;20043;-94
2023/08/20 09:52:42;;;;;;;4.68;4.28;;;;;;;;;;4973536;28;20022;-93
2023/08/20 09:55:16;;;;;;;5.03;4.53;;;;;;;;;;4992150;28;20042;-95
2023/08/20 09:57:48;;;;;;;5.40;4.90;;;;;;;;;;4979115;28;20051;-93
2023/08/20 10:00:18;;;;;;;4.95;4.45;;;;;;;;;;4998543;28;20045;-93
2023/08/20 10:02:49;;;;;;;4.82;4.40;;;;;;;;;;4977677;28;20019;-93
2023/08/20 10:05:16;;;;;;;5.10;4.60;;;;;;;;;;4960967;28;20061;-92
2023/08/20 10:07:44;;;;;;;8.70;5.32;;;;;;;;;;4974619;28;20042;-93
2023/08/20 10:10:13;;;;;;;5.20;4.70;;;;;;;;;;4992151;28;20044;-94
2023/08/20 10:12:41;;;;;;;5.30;4.57;;;;;;;;;;4974823;28;20038;-94
2023/08/20 10:15:10;;;;;;;4.65;4.25;;;;;;;;;;4982405;28;20033;-93
2023/08/20 10:17:42;;;;;;;4.40;3.97;;;;;;;;;;4996550;28;20031;-93
2023/08/20 10:20:11;;;;;;;4.80;4.40;;;;;;;;;;4978851;28;20302;-93
2023/08/20 10:22:40;;;;;;;6.38;4.43;;;;;;;;;;4980372;28;20031;-93
2023/08/20 10:25:08;;;;;;;4.72;4.22;;;;;;;;;;4993965;28;20050;-93
2023/08/20 10:27:42;;;;;;;6.88;4.68;;;;;;;;;;4991791;28;20047;-93
2023/08/20 10:30:16;;;;;;;6.55;4.55;;;;;;;;;;4994203;28;20516;-94
2023/08/20 10:32:50;;;;;;;8.18;4.82;;;;;;;;;;4996783;28;20031;-94
2023/08/20 10:35:18;;;;;;;4.63;4.20;;;;;;;;;;4999662;28;20043;-94
2023/08/20 10:38:17;;;;;;;7.10;4.38;;;;;;;;;;4990676;28;20042;-93
2023/08/20 10:40:55;;;;;;;7.25;5.07;;;;;;;;;;4963396;28;20062;-94
2023/08/20 10:43:31;;;;;;;7.00;4.82;;;;;;;;;;4995179;28;20042;-94
2023/08/20 10:46:15;;;;;;;5.35;4.70;;;;;;;;;;4976331;28;20027;-93
2023/08/20 10:48:47;;;;;;;6.32;4.18;;;;;;;;;;4978205;28;20061;-92
2023/08/20 10:51:16;;;;;;;;;;;;;;;;;;4957530;28;20057;-93
2023/08/20 10:53:53;;;;;;;4.53;4.15;;;;;;;;;;4979002;28;19906;-94
2023/08/20 10:56:20;;;;;;;4.95;4.22;;;;;;;;;;4995452;28;20037;-92
2023/08/20 10:58:50;;;;;;;8.02;5.50;;;;;;;;;;4977508;28;20051;-93
2023/08/20 11:01:23;;;;;;;9.40;4.63;;;;;;;;;;4993486;28;20047;-93
2023/08/20 11:03:52;;;;;;;5.20;4.20;;;;;;;;;;4994957;28;20035;-93
2023/08/20 11:06:19;;;;;;;4.05;3.70;;;;;;;;;;4994745;28;20049;-92
2023/08/20 11:08:48;;;;;;;4.43;4.00;;;;;;;;;;4995019;28;20053;-93
2023/08/20 11:11:16;;;;;;;6.70;3.92;;;;;;;;;;4994896;28;20115;-93
2023/08/20 11:13:51;;;;;;;7.72;4.32;;;;;;;;;;4995116;28;20051;-93
2023/08/20 11:16:20;;;;;;;4.60;4.20;;;;;;;;;;4996298;28;20045;-93
2023/08/20 11:18:48;;;;;;;4.18;3.70;;;;;;;;;;4975628;28;20051;-93
2023/08/20 11:21:17;;;;;;;4.05;3.75;;;;;;;;;;4993068;28;20034;-93
2023/08/20 11:23:47;;;;;;;4.95;4.03;;;;;;;;;;4996155;28;20053;-91
2023/08/20 11:26:17;;;;;;;4.53;3.22;;;;;;;;;;4993901;28;20031;-92
2023/08/20 11:28:46;;;;;;;4.95;3.70;;;;;;;;;;4981029;28;20039;-92
2023/08/20 11:31:14;;;;;;;3.95;3.55;;;;;;;;;;4979826;28;20030;-93
2023/08/20 11:33:44;;;;;;;4.28;3.88;;;;;;;;;;4997781;28;20041;-93
2023/08/20 11:36:16;;;;;;;6.70;5.07;;;;;;;;;;4996431;28;20042;-92
2023/08/20 11:38:50;;;;;;;;;;;;;;;;;;4980784;28;20030;-92
2023/08/20 11:41:19;;;;;;;4.93;4.53;;;;;;;;;;4995079;28;20142;-92
2023/08/20 11:43:49;;;;;;;;;;;;;;;;;;4993557;28;20030;-91
2023/08/20 11:46:17;;;;;;;5.55;4.03;;;;;;;;;;4980523;28;19916;-93
2023/08/20 11:49:03;;;;;;;4.20;3.72;;;;;;;;;;4980495;28;20027;-92
2023/08/20 11:51:31;;;;;;;4.97;4.30;;;;;;;;;;4978645;28;20039;-92
2023/08/20 11:53:58;;;;;;;4.57;3.83;;;;;;;;;;4982332;28;20046;-92
2023/08/20 11:56:27;;;;;;;5.35;3.85;;;;;;;;;;4990915;28;20047;-93
2023/08/20 11:58:59;;;;;;;5.20;4.28;;;;;;;;;;4992262;28;20030;-92
2023/08/20 12:01:31;;;;;;;5.47;4.00;;;;;;;;;;4968195;28;20066;-93
2023/08/20 12:04:02;;;;;;;5.00;3.92;;;;;;;;;;4976526;28;20045;-93
2023/08/20 12:06:30;;;;;;;6.05;5.45;;;;;;;;;;4977324;28;20286;-94
2023/08/20 12:08:58;;;;;;;4.93;4.35;;;;;;;;;;4992371;28;20050;-93
2023/08/20 12:11:26;;;;;;;4.45;3.95;;;;;;;;;;4969920;28;20061;-94
2023/08/20 12:13:54;;;;;;;8.18;3.40;;;;;;;;;;4987732;28;20035;-92
2023/08/20 12:16:24;;;;;;;4.32;3.92;;;;;;;;;;4986559;28;20043;-95
2023/08/20 12:18:53;;;;;;;8.85;3.72;;;;;;;;;;4993113;28;20043;-94
2023/08/20 12:21:21;;;;;;;4.88;3.80;;;;;;;;;;4971952;28;20043;-93
2023/08/20 12:23:49;;;;;;;3.83;3.42;;;;;;;;;;4975466;28;20037;-93
2023/08/20 12:26:22;;;;;;;5.22;4.35;;;;;;;;;;4986969;28;20034;-93
2023/08/20 12:28:50;;;;;;;7.55;3.85;;;;;;;;;;4957969;28;20035;-94
2023/08/20 12:31:20;;;;;;;5.07;3.88;;;;;;;;;;4949906;28;20031;-93
2023/08/20 12:33:49;;;;;;;4.57;4.13;;;;;;;;;;4994530;28;20047;-94
2023/08/20 12:36:18;;;;;;;6.20;4.72;;;;;;;;;;4988337;28;20061;-92
2023/08/20 12:38:50;;;;;;;4.00;3.53;;;;;;;;;;4978017;28;20054;-93
2023/08/20 12:41:23;;;;;;;4.90;3.78;;;;;;;;;;4977649;28;20041;-94
2023/08/20 12:43:56;;;;;;;5.22;3.47;;;;;;;;;;4978739;28;20037;-93
2023/08/20 12:46:24;;;;;;;5.43;3.83;;;;;;;;;;4986288;28;20037;-93
2023/08/20 12:48:54;;;;;;;3.70;3.08;;;;;;;;;;4984563;28;20035;-93
2023/08/20 12:51:22;;;;;;;6.55;3.15;;;;;;;;;;4991535;28;20038;-93
2023/08/20 12:53:51;;;;;;;7.00;3.97;;;;;;;;;;4993037;28;20300;-94
2023/08/20 12:56:18;;;;;;;3.90;3.58;;;;;;;;;;4953439;28;20035;-94
2023/08/20 12:58:46;;;;;;;3.78;3.35;;;;;;;;;;4978023;28;20050;-94
2023/08/20 13:01:19;;;;;;;5.30;3.90;;;;;;;;;;4994961;28;20034;-93
2023/08/20 13:03:55;;;;;;;4.30;3.90;;;;;;;;;;4977627;28;20050;-93
2023/08/20 13:06:23;;;;;;;4.82;3.72;;;;;;;;;;4994024;28;20027;-94
2023/08/20 13:08:57;;;;;;;4.70;3.15;;;;;;;;;;4968641;28;20054;-93
2023/08/20 13:11:26;;;;;;;5.55;3.53;;;;;;;;;;4984267;28;20034;-94
2023/08/20 13:13:54;;;;;;;4.50;4.10;;;;;;;;;;4994645;28;20053;-93
2023/08/20 13:16:24;;;;;;;3.55;3.22;;;;;;;;;;4960902;28;20068;-93
2023/08/20 13:18:52;;;;;;;4.72;4.32;;;;;;;;;;4992847;28;20054;-93
2023/08/20 13:21:21;;;;;;;4.80;3.63;;;;;;;;;;4973085;28;20026;-93
2023/08/20 13:23:48;;;;;;;5.45;3.90;;;;;;;;;;4989913;28;20065;-94
2023/08/20 13:26:20;;;;;;;10.25;4.25;;;;;;;;;;4974024;28;20265;-93
2023/08/20 13:28:47;;;;;;;4.72;3.90;;;;;;;;;;4995551;28;20035;-92
2023/08/20 13:31:15;;;;;;;4.15;3.50;;;;;;;;;;4968874;28;20042;-93
2023/08/20 13:33:42;;;;;;;5.47;3.78;;;;;;;;;;4966908;28;20023;-93
2023/08/20 13:36:09;;;;;;;4.75;3.30;;;;;;;;;;4977807;28;20062;-94
2023/08/20 13:38:39;;;;;;;3.92;3.53;;;;;;;;;;4980455;28;20039;-93
2023/08/20 13:41:08;;;;;;;5.25;4.30;;;;;;;;;;4978963;28;20055;-93
2023/08/20 13:43:40;;;;;;;4.00;3.60;;;;;;;;;;4985961;28;20183;-94
2023/08/20 13:46:07;;;;;;;6.00;3.92;;;;;;;;;;4995066;28;20047;-94
2023/08/20 13:48:35;;;;;;;6.10;4.45;;;;;;;;;;4979097;28;20053;-93
2023/08/20 13:51:02;;;;;;;5.97;3.92;;;;;;;;;;4996121;28;20045;-93
2023/08/20 13:53:32;;;;;;;3.92;3.55;;;;;;;;;;4978586;28;20042;-93
2023/08/20 13:55:59;;;;;;;5.80;4.20;;;;;;;;;;4997434;28;20042;-93
2023/08/20 13:58:27;;;;;;;4.88;4.10;;;;;;;;;;4998241;28;20022;-93
2023/08/20 14:00:58;;;;;;;7.20;4.32;;;;;;;;;;4993696;28;20061;-93
2023/08/20 14:03:27;;;;;;;4.82;4.43;;;;;;;;;;4979436;28;20033;-93
2023/08/20 14:05:55;;;;;;;6.82;4.65;;;;;;;;;;4987821;28;20061;-92
2023/08/20 14:08:23;;;;;;;4.18;3.63;;;;;;;;;;4995394;28;20049;-93
2023/08/20 14:10:50;;;;;;;6.13;4.97;;;;;;;;;;4994566;28;20046;-93
2023/08/20 14:13:18;;;;;;;6.97;3.97;;;;;;;;;;4985322;28;20031;-93
2023/08/20 14:15:46;;;;;;;5.80;4.20;;;;;;;;;;4993464;28;20034;-94
2023/08/20 14:18:15;;;;;;;6.03;4.25;;;;;;;;;;4979326;28;20031;-94
2023/08/20 14:20:45;;;;;;;4.87;3.83;;;;;;;;;;4997031;28;20038;-93
2023/08/20 14:23:12;;;;;;;3.75;3.45;;;;;;;;;;4993206;28;20039;-93
2023/08/20 14:25:40;;;;;;;4.45;4.00;;;;;;;;;;4989119;28;20047;-93
2023/08/20 14:28:10;;;;;;;5.20;4.72;;;;;;;;;;4972219;28;20035;-92
2023/08/20 14:30:38;;;;;;;8.38;4.30;;;;;;;;;;4996190;28;20029;-93
2023/08/20 14:33:06;;;;;;;4.82;4.43;;;;;;;;;;4970867;28;20039;-93
2023/08/20 14:35:35;;;;;;;4.50;3.97;;;;;;;;;;4990500;28;20045;-93
2023/08/20 14:38:02;;;;;;;4.50;4.10;;;;;;;;;;4963867;28;20035;-93
2023/08/20 14:40:31;;;;;;;4.90;4.47;;;;;;;;;;4998271;28;20030;-93
2023/08/20 14:42:59;;;;;;;4.63;3.53;;;;;;;;;;4974349;28;20027;-92
2023/08/20 14:45:26;;;;;;;4.05;3.58;;;;;;;;;;4978386;28;20035;-93
2023/08/20 14:47:56;;;;;;;6.43;3.88;;;;;;;;;;4977245;28;20050;-93
2023/08/20 14:50:23;;;;;;;4.43;4.03;;;;;;;;;;4996777;28;20044;-94
2023/08/20 14:52:52;;;;;;;4.53;4.03;;;;;;;;;;4980932;28;20049;-94
2023/08/20 14:55:21;;;;;;;4.15;3.75;;;;;;;;;;4979610;28;21260;-94